Time;durP1;ratioP1;P1;durP2;ratioP2;P2;SDS_P1;SDS_P2;PMS_P1;PMS_P2;Temp;Humidity;BMP_temperature;BMP_pressure;BME280_temperature;BME280_humidity;BME280_pressure;Samples;Min_cycle;Max_cycle;Signal;HPM_P1;HPM_P2
2021/04/19 00:02:24;;;;;;;24.00;15.67;;;2.10;99.90;;;;;;4993291;28;20509;-78
2021/04/19 00:04:50;;;;;;;21.07;14.47;;;2.10;99.90;;;;;;4994426;28;20661;-77
2021/04/19 00:07:17;;;;;;;23.67;15.23;;;2.10;99.90;;;;;;4994643;28;20175;-78
2021/04/19 00:09:43;;;;;;;24.00;15.60;;;2.00;99.90;;;;;;4994563;28;20503;-78
2021/04/19 00:12:09;;;;;;;22.90;15.57;;;2.00;99.90;;;;;;4993194;28;20430;-78
2021/04/19 00:14:35;;;;;;;25.93;15.53;;;2.00;99.90;;;;;;4993822;28;20275;-78
2021/04/19 00:17:01;;;;;;;22.47;14.40;;;2.00;99.90;;;;;;4994986;28;20991;-78
2021/04/19 00:19:26;;;;;;;21.87;14.70;;;1.90;99.90;;;;;;4993566;28;20207;-78
2021/04/19 00:21:53;;;;;;;23.23;15.03;;;1.90;99.90;;;;;;4995001;28;20199;-77
2021/04/19 00:24:19;;;;;;;22.87;15.47;;;1.90;99.90;;;;;;4994464;28;20227;-78
2021/04/19 00:26:44;;;;;;;23.80;15.47;;;1.90;99.90;;;;;;4994846;28;20398;-78
2021/04/19 00:29:10;;;;;;;22.47;14.53;;;1.80;99.90;;;;;;4993004;28;20203;-78
2021/04/19 00:31:36;;;;;;;22.83;15.20;;;1.90;99.90;;;;;;4994781;28;20189;-77
2021/04/19 00:34:02;;;;;;;22.13;14.60;;;1.90;99.90;;;;;;4994206;28;20176;-77
2021/04/19 00:36:29;;;;;;;22.47;14.33;;;2.00;99.90;;;;;;4993151;28;20708;-78
2021/04/19 00:38:54;;;;;;;26.83;17.57;;;1.90;99.90;;;;;;4994200;28;20932;-75
2021/04/19 00:41:21;;;;;;;24.67;15.87;;;2.00;99.90;;;;;;4993507;28;20453;-75
2021/04/19 00:43:47;;;;;;;24.03;14.87;;;2.00;99.90;;;;;;5008740;28;20171;-77
2021/04/19 00:46:13;;;;;;;23.83;15.63;;;2.00;99.90;;;;;;4992950;28;20411;-78
2021/04/19 00:48:39;;;;;;;21.97;15.23;;;2.00;99.90;;;;;;4994315;28;20654;-78
2021/04/19 00:51:05;;;;;;;22.67;15.53;;;2.10;99.90;;;;;;4994479;28;20419;-78
2021/04/19 00:53:31;;;;;;;23.07;13.73;;;2.10;99.90;;;;;;4994165;28;20182;-78
2021/04/19 00:55:57;;;;;;;19.63;13.27;;;2.10;99.90;;;;;;4994149;28;20403;-77
2021/04/19 00:58:33;;;;;;;20.13;15.20;;;2.00;99.90;;;;;;4992674;28;20215;-77
2021/04/19 01:00:59;;;;;;;24.13;14.70;;;2.00;99.90;;;;;;4992631;28;20462;-78
2021/04/19 01:03:25;;;;;;;24.00;14.37;;;2.10;99.90;;;;;;4992904;28;20426;-78
2021/04/19 01:05:52;;;;;;;21.77;14.47;;;2.10;99.90;;;;;;4994047;28;20403;-77
2021/04/19 01:08:18;;;;;;;21.40;14.33;;;2.10;99.90;;;;;;4994757;28;20438;-78
2021/04/19 01:10:44;;;;;;;20.10;13.03;;;2.00;99.90;;;;;;4997948;28;20406;-78
2021/04/19 01:13:10;;;;;;;21.93;14.50;;;2.00;99.90;;;;;;4997617;28;20489;-78
2021/04/19 01:15:36;;;;;;;19.10;13.17;;;2.00;99.90;;;;;;4997494;28;20634;-78
2021/04/19 01:18:01;;;;;;;20.07;13.70;;;2.00;99.90;;;;;;4997256;28;20454;-78
2021/04/19 01:20:29;;;;;;;20.77;14.03;;;2.00;99.90;;;;;;4997832;28;20180;-78
2021/04/19 01:22:55;;;;;;;23.13;13.70;;;2.10;99.90;;;;;;4996268;28;20187;-77
2021/04/19 01:25:23;;;;;;;18.73;13.33;;;2.00;99.90;;;;;;4997303;28;20414;-78
2021/04/19 01:27:50;;;;;;;22.20;15.20;;;2.00;99.90;;;;;;4997324;28;20192;-78
2021/04/19 01:30:17;;;;;;;21.13;14.17;;;2.00;99.90;;;;;;4996160;28;20497;-78
2021/04/19 01:32:44;;;;;;;20.47;14.37;;;2.10;99.90;;;;;;4996105;28;20433;-77
2021/04/19 01:35:11;;;;;;;19.37;13.93;;;2.00;99.90;;;;;;4997128;28;20420;-78
2021/04/19 01:37:37;;;;;;;20.87;14.67;;;2.20;99.90;;;;;;4997402;28;20431;-78
2021/04/19 01:40:04;;;;;;;23.13;14.93;;;2.30;99.90;;;;;;4997567;28;20423;-78
2021/04/19 01:42:30;;;;;;;23.43;15.07;;;2.20;99.90;;;;;;4997372;28;20462;-78
2021/04/19 01:44:56;;;;;;;22.50;13.33;;;2.30;99.90;;;;;;4997027;28;20417;-77
2021/04/19 01:47:21;;;;;;;19.03;13.20;;;2.30;99.90;;;;;;4997254;28;20176;-78
2021/04/19 01:49:47;;;;;;;20.60;13.33;;;2.20;99.90;;;;;;4997179;28;20179;-78
2021/04/19 01:52:13;;;;;;;22.87;14.63;;;2.20;99.90;;;;;;4997243;28;20211;-78
2021/04/19 01:54:38;;;;;;;21.13;15.17;;;2.10;99.90;;;;;;4997032;28;20179;-78
2021/04/19 01:57:05;;;;;;;21.97;14.70;;;2.20;99.90;;;;;;4996967;28;20195;-78
2021/04/19 01:59:31;;;;;;;21.27;14.50;;;2.20;99.90;;;;;;4996675;28;20275;-78
2021/04/19 02:02:00;;;;;;;22.07;16.03;;;2.20;99.90;;;;;;4997370;28;20513;-78
2021/04/19 02:05:00;;;;;;;21.40;14.13;;;2.20;99.90;;;;;;4995562;28;20477;-77
2021/04/19 02:07:42;;;;;;;21.23;14.87;;;2.20;99.90;;;;;;4995849;28;20446;-78
2021/04/19 02:10:14;;;;;;;22.00;14.57;;;2.10;99.90;;;;;;4995981;28;20410;-77
2021/04/19 02:13:21;;;;;;;21.10;14.93;;;2.20;99.90;;;;;;4995595;28;20951;-77
2021/04/19 02:16:06;;;;;;;22.80;15.50;;;2.10;99.90;;;;;;4995575;28;20501;-78
2021/04/19 02:18:46;;;;;;;25.13;15.57;;;2.10;99.90;;;;;;4997256;28;20441;-77
2021/04/19 02:21:22;;;;;;;22.27;15.87;;;2.10;99.90;;;;;;4995870;28;20533;-78
2021/04/19 02:23:58;;;;;;;24.60;15.83;;;2.10;99.90;;;;;;4997348;28;20506;-77
2021/04/19 02:26:29;;;;;;;23.30;15.63;;;2.00;99.90;;;;;;4997174;28;20598;-78
2021/04/19 02:29:00;;;;;;;20.47;14.43;;;2.10;99.90;;;;;;4995550;28;20785;-77
2021/04/19 02:31:31;;;;;;;20.23;14.77;;;2.00;99.90;;;;;;4997229;28;20399;-78
2021/04/19 02:33:58;;;;;;;22.43;14.63;;;2.10;99.90;;;;;;4995651;28;20498;-78
2021/04/19 02:36:25;;;;;;;24.03;14.77;;;2.10;99.90;;;;;;4996273;28;20505;-78
2021/04/19 02:38:55;;;;;;;23.60;14.40;;;2.10;99.90;;;;;;4997264;28;20431;-78
2021/04/19 02:41:22;;;;;;;25.23;16.33;;;2.00;99.90;;;;;;4997588;28;20493;-78
2021/04/19 02:43:49;;;;;;;20.53;15.00;;;2.00;99.90;;;;;;4997374;28;20464;-78
2021/04/19 02:46:16;;;;;;;24.93;15.83;;;2.00;99.90;;;;;;4995588;28;20473;-78
2021/04/19 02:48:43;;;;;;;23.27;15.10;;;2.00;99.90;;;;;;4995563;28;20999;-78
2021/04/19 02:51:09;;;;;;;22.50;14.73;;;2.00;99.90;;;;;;4995909;28;20545;-77
2021/04/19 02:53:36;;;;;;;23.07;16.53;;;2.10;99.90;;;;;;4995495;28;20422;-78
2021/04/19 02:56:04;;;;;;;24.30;16.00;;;2.10;99.90;;;;;;4995540;28;20423;-78
2021/04/19 02:58:38;;;;;;;23.20;16.33;;;2.10;99.90;;;;;;4994239;28;20469;-77
2021/04/19 03:01:05;;;;;;;24.47;16.80;;;2.20;99.90;;;;;;4995776;28;20446;-78
2021/04/19 03:03:32;;;;;;;23.17;15.77;;;2.10;99.90;;;;;;4995376;28;20908;-78
2021/04/19 03:05:59;;;;;;;23.70;16.70;;;2.20;99.90;;;;;;4995336;28;20828;-77
2021/04/19 03:08:29;;;;;;;22.73;14.67;;;2.20;99.90;;;;;;4995266;28;20462;-77
2021/04/19 03:11:01;;;;;;;22.80;14.87;;;2.20;99.90;;;;;;4995315;28;20415;-77
2021/04/19 03:13:30;;;;;;;21.33;15.77;;;2.10;99.90;;;;;;4995212;28;20449;-78
2021/04/19 03:15:58;;;;;;;22.00;15.37;;;2.10;99.90;;;;;;4993645;28;20427;-77
2021/04/19 03:18:25;;;;;;;25.20;16.57;;;2.20;99.90;;;;;;4995345;28;20545;-78
2021/04/19 03:21:12;;;;;;;25.07;16.23;;;2.20;99.90;;;;;;4995390;28;20454;-78
2021/04/19 03:24:00;;;;;;;23.50;15.20;;;2.20;99.90;;;;;;4996273;28;20415;-78
2021/04/19 03:26:30;;;;;;;22.57;15.80;;;2.20;99.90;;;;;;4994947;28;20729;-77
2021/04/19 03:28:57;;;;;;;20.93;15.00;;;2.20;99.90;;;;;;4995040;28;20435;-77
2021/04/19 03:31:29;;;;;;;22.00;16.20;;;2.20;99.90;;;;;;4993353;28;20430;-77
2021/04/19 03:34:01;;;;;;;22.60;15.30;;;2.10;99.90;;;;;;4995166;28;20422;-77
2021/04/19 03:36:31;;;;;;;25.30;15.23;;;2.10;99.90;;;;;;4995280;28;20892;-78
2021/04/19 03:38:58;;;;;;;24.20;15.13;;;2.20;99.90;;;;;;4993579;28;20446;-77
2021/04/19 03:41:25;;;;;;;23.47;15.93;;;2.20;99.90;;;;;;4995082;28;20458;-78
2021/04/19 03:43:58;;;;;;;23.23;15.57;;;2.20;99.90;;;;;;4995409;28;20420;-77
2021/04/19 03:46:27;;;;;;;22.43;15.03;;;2.20;99.90;;;;;;4994915;28;20402;-77
2021/04/19 03:49:02;;;;;;;26.80;16.97;;;2.20;99.90;;;;;;4995237;28;20434;-78
2021/04/19 03:51:29;;;;;;;24.63;16.67;;;2.10;99.90;;;;;;4993410;28;20418;-77
2021/04/19 03:53:57;;;;;;;23.97;15.20;;;2.10;99.90;;;;;;4992919;28;20438;-78
2021/04/19 03:56:24;;;;;;;26.27;16.57;;;2.20;99.90;;;;;;4994317;28;20414;-78
2021/04/19 03:58:52;;;;;;;23.57;16.03;;;2.10;99.90;;;;;;4995232;28;20442;-76
2021/04/19 04:01:19;;;;;;;25.77;16.97;;;2.10;99.90;;;;;;4994616;28;20572;-77
2021/04/19 04:03:46;;;;;;;22.60;15.70;;;2.10;99.90;;;;;;4994701;28;20403;-77
2021/04/19 04:06:14;;;;;;;26.00;16.70;;;2.10;99.90;;;;;;4993207;28;20453;-77
2021/04/19 04:08:41;;;;;;;22.83;16.17;;;2.10;99.90;;;;;;4994886;28;20522;-77
2021/04/19 04:11:08;;;;;;;24.13;16.00;;;2.10;99.90;;;;;;4993954;28;20554;-78
2021/04/19 04:13:37;;;;;;;23.27;15.87;;;2.00;99.90;;;;;;4995332;28;20418;-78
2021/04/19 04:16:04;;;;;;;26.03;16.87;;;2.00;99.90;;;;;;4995039;28;20418;-79
2021/04/19 04:18:29;;;;;;;27.57;18.13;;;2.00;99.90;;;;;;4995127;28;20811;-78
2021/04/19 04:20:56;;;;;;;30.27;18.13;;;1.90;99.90;;;;;;4994435;28;20835;-78
2021/04/19 04:23:21;;;;;;;25.97;17.60;;;2.00;99.90;;;;;;4994102;28;20172;-78
2021/04/19 04:25:48;;;;;;;27.90;17.10;;;2.00;99.90;;;;;;4994846;28;20971;-77
2021/04/19 04:28:15;;;;;;;25.63;17.53;;;2.00;99.90;;;;;;4993275;28;20195;-77
2021/04/19 04:30:42;;;;;;;25.57;17.60;;;1.80;99.90;;;;;;4994759;28;20414;-78
2021/04/19 04:33:08;;;;;;;28.03;16.87;;;2.00;99.90;;;;;;4993047;28;20442;-78
2021/04/19 04:35:35;;;;;;;26.97;17.60;;;1.90;99.90;;;;;;4994458;28;20415;-77
2021/04/19 04:38:01;;;;;;;27.13;17.00;;;1.90;99.90;;;;;;5009614;28;20688;-78
2021/04/19 04:40:30;;;;;;;24.20;16.10;;;1.90;99.90;;;;;;4994266;28;20411;-78
2021/04/19 04:43:15;;;;;;;26.63;17.60;;;1.90;99.90;;;;;;4994658;28;20546;-77
2021/04/19 04:45:42;;;;;;;28.77;17.13;;;1.90;99.90;;;;;;4998485;28;20457;-78
2021/04/19 04:48:33;;;;;;;24.93;17.70;;;1.90;99.90;;;;;;4997006;28;20438;-78
2021/04/19 04:51:09;;;;;;;25.40;16.70;;;1.90;99.90;;;;;;4997926;28;20398;-77
2021/04/19 04:53:39;;;;;;;23.87;16.97;;;1.90;99.90;;;;;;4998407;28;20876;-78
2021/04/19 04:56:08;;;;;;;28.83;16.37;;;1.80;99.90;;;;;;4998210;28;20732;-78
2021/04/19 04:58:35;;;;;;;33.43;18.67;;;2.00;99.90;;;;;;4996991;28;20588;-78
2021/04/19 05:01:03;;;;;;;34.83;19.83;;;2.00;99.90;;;;;;5013981;28;20462;-78
2021/04/19 05:03:30;;;;;;;28.53;17.50;;;1.90;99.90;;;;;;4999498;28;20790;-78
2021/04/19 05:05:56;;;;;;;32.37;18.70;;;1.80;99.90;;;;;;4996449;28;20414;-77
2021/04/19 05:08:22;;;;;;;27.87;17.03;;;2.00;99.90;;;;;;4997238;28;20426;-78
2021/04/19 05:10:49;;;;;;;24.73;17.07;;;2.00;99.90;;;;;;4997980;28;20411;-77
2021/04/19 05:13:16;;;;;;;27.53;17.33;;;2.00;99.90;;;;;;4996040;28;20419;-77
2021/04/19 05:15:47;;;;;;;28.57;17.00;;;2.10;99.90;;;;;;4997102;28;20975;-77
2021/04/19 05:18:18;;;;;;;36.80;16.47;;;2.00;99.90;;;;;;4982628;28;20588;-77
2021/04/19 05:20:45;;;;;;;27.90;16.70;;;2.10;99.90;;;;;;4996161;28;20453;-77
2021/04/19 05:23:12;;;;;;;25.60;16.33;;;2.00;99.90;;;;;;4997642;28;20893;-77
2021/04/19 05:25:39;;;;;;;23.77;14.80;;;2.10;99.90;;;;;;4997138;28;20919;-77
2021/04/19 05:28:05;;;;;;;26.63;16.17;;;2.20;99.90;;;;;;4997239;28;20476;-77
2021/04/19 05:30:31;;;;;;;22.23;16.83;;;2.30;99.90;;;;;;4996166;28;20506;-77
2021/04/19 05:33:02;;;;;;;27.13;17.93;;;2.30;99.90;;;;;;4997464;28;20649;-77
2021/04/19 05:35:29;;;;;;;48.43;27.53;;;2.40;99.90;;;;;;4995418;28;20422;-77
2021/04/19 05:37:54;;;;;;;39.60;24.43;;;2.50;99.90;;;;;;4996610;28;20484;-77
2021/04/19 05:40:23;;;;;;;39.37;21.13;;;2.50;99.90;;;;;;4996471;28;20411;-78
2021/04/19 05:42:49;;;;;;;62.73;31.07;;;2.50;99.90;;;;;;4996701;28;20203;-77
2021/04/19 05:45:16;;;;;;;84.73;40.77;;;2.40;99.90;;;;;;4997318;28;20407;-78
2021/04/19 05:47:47;;;;;;;40.13;23.23;;;2.60;99.90;;;;;;4996769;28;20688;-78
2021/04/19 05:50:14;;;;;;;40.00;23.63;;;2.70;99.90;;;;;;4997760;28;20804;-77
2021/04/19 05:52:41;;;;;;;33.37;23.10;;;2.70;99.90;;;;;;4997867;28;20760;-77
2021/04/19 05:55:08;;;;;;;29.27;19.07;;;2.80;99.90;;;;;;4996590;28;20427;-78
2021/04/19 05:57:40;;;;;;;32.83;21.10;;;2.80;99.90;;;;;;4997443;28;20473;-77
2021/04/19 06:00:19;;;;;;;27.07;18.43;;;2.80;99.90;;;;;;4996774;28;20427;-78
2021/04/19 06:03:06;;;;;;;25.77;17.77;;;2.80;99.90;;;;;;4996692;28;20528;-77
2021/04/19 06:05:38;;;;;;;24.33;16.53;;;2.90;99.90;;;;;;4997154;28;20427;-77
2021/04/19 06:08:07;;;;;;;28.50;17.17;;;2.90;99.90;;;;;;4997265;28;20438;-77
2021/04/19 06:10:43;;;;;;;29.17;18.73;;;3.10;99.90;;;;;;4997501;28;20780;-78
2021/04/19 06:13:11;;;;;;;25.60;17.17;;;3.10;99.90;;;;;;4998764;28;20801;-79
2021/04/19 06:15:38;;;;;;;26.23;17.00;;;3.20;99.90;;;;;;4997095;28;20781;-78
2021/04/19 06:18:04;;;;;;;24.47;15.50;;;3.30;99.90;;;;;;4997517;28;20435;-78
2021/04/19 06:20:30;;;;;;;22.27;14.77;;;3.30;99.90;;;;;;4995944;28;20422;-78
2021/04/19 06:22:57;;;;;;;23.43;15.13;;;3.40;99.90;;;;;;4996872;28;20597;-78
2021/04/19 06:25:23;;;;;;;22.50;15.70;;;3.50;99.90;;;;;;4998172;28;20417;-78
2021/04/19 06:27:58;;;;;;;29.77;16.73;;;3.70;99.90;;;;;;4999070;28;20529;-78
2021/04/19 06:30:27;;;;;;;26.10;15.93;;;3.80;99.90;;;;;;4997745;28;20505;-78
2021/04/19 06:32:52;;;;;;;23.50;15.93;;;4.00;99.90;;;;;;4997973;28;20462;-78
2021/04/19 06:35:19;;;;;;;22.87;15.83;;;4.40;99.90;;;;;;4997987;28;20430;-78
2021/04/19 06:37:54;;;;;;;19.77;14.13;;;4.40;99.90;;;;;;5014310;28;20302;-78
2021/04/19 06:40:19;;;;;;;24.70;15.10;;;4.60;99.90;;;;;;4999237;28;20919;-78
2021/04/19 06:42:45;;;;;;;21.27;15.10;;;4.70;99.90;;;;;;4999560;28;20518;-78
2021/04/19 06:45:14;;;;;;;20.90;14.47;;;4.70;99.90;;;;;;4999475;28;20171;-78
2021/04/19 06:47:40;;;;;;;23.33;16.10;;;4.90;99.90;;;;;;4998140;28;20203;-78
2021/04/19 06:50:06;;;;;;;19.87;14.27;;;4.90;99.90;;;;;;4999284;28;20429;-78
2021/04/19 06:52:32;;;;;;;21.10;15.03;;;4.90;99.90;;;;;;4998017;28;20489;-78
2021/04/19 06:54:59;;;;;;;18.83;13.63;;;4.90;99.90;;;;;;4999219;28;20414;-78
2021/04/19 06:57:28;;;;;;;21.30;14.17;;;4.90;99.90;;;;;;4999343;28;20195;-79
2021/04/19 06:59:54;;;;;;;21.57;15.50;;;5.00;99.90;;;;;;4998385;28;20423;-78
2021/04/19 07:02:21;;;;;;;23.63;14.70;;;5.10;99.90;;;;;;4999239;28;20893;-78
2021/04/19 07:04:53;;;;;;;20.97;15.20;;;5.30;99.90;;;;;;4998926;28;20446;-78
2021/04/19 07:07:25;;;;;;;20.00;13.97;;;5.40;99.90;;;;;;4997722;28;20909;-78
2021/04/19 07:09:56;;;;;;;18.33;14.03;;;5.40;99.90;;;;;;4999204;28;20943;-78
2021/04/19 07:12:23;;;;;;;17.63;13.57;;;5.40;99.90;;;;;;4999967;28;20418;-78
2021/04/19 07:14:53;;;;;;;17.43;12.93;;;5.50;99.90;;;;;;4996425;28;20506;-78
2021/04/19 07:17:19;;;;;;;19.60;13.50;;;5.70;99.90;;;;;;4995512;28;20524;-78
2021/04/19 07:19:46;;;;;;;18.03;12.80;;;5.90;99.90;;;;;;5011190;28;20927;-78
2021/04/19 07:22:16;;;;;;;16.07;12.57;;;6.10;99.90;;;;;;4996291;28;20948;-78
2021/04/19 07:24:42;;;;;;;17.87;13.17;;;6.40;99.90;;;;;;4996062;28;20406;-78
2021/04/19 07:27:10;;;;;;;15.50;11.50;;;6.70;99.90;;;;;;4995105;28;20419;-78
2021/04/19 07:29:36;;;;;;;16.10;11.97;;;7.20;99.90;;;;;;4996791;28;20206;-78
2021/04/19 07:32:02;;;;;;;16.27;11.83;;;7.90;99.90;;;;;;4995669;28;20794;-78
2021/04/19 07:34:30;;;;;;;16.67;10.47;;;8.50;99.90;;;;;;4998786;28;20689;-78
2021/04/19 07:36:57;;;;;;;17.03;10.93;;;8.50;99.90;;;;;;4998236;28;20179;-78
2021/04/19 07:39:24;;;;;;;14.77;11.23;;;8.90;99.90;;;;;;4999055;28;20210;-78
2021/04/19 07:41:59;;;;;;;13.77;11.30;;;9.80;99.90;;;;;;4996147;28;20239;-78
2021/04/19 07:44:47;;;;;;;15.23;10.47;;;10.60;99.90;;;;;;4997193;28;20278;-78
2021/04/19 07:47:31;;;;;;;16.33;12.00;;;11.20;99.90;;;;;;4995566;28;20176;-78
2021/04/19 07:50:14;;;;;;;14.73;11.17;;;11.60;99.90;;;;;;4997329;28;20155;-78
2021/04/19 07:52:52;;;;;;;13.77;10.90;;;12.10;99.90;;;;;;4997710;28;20602;-79
2021/04/19 07:55:22;;;;;;;16.23;11.70;;;12.70;99.90;;;;;;4996687;28;20185;-78
2021/04/19 07:57:49;;;;;;;12.77;9.70;;;12.80;99.90;;;;;;4997494;28;20681;-78
2021/04/19 08:00:33;;;;;;;12.10;9.13;;;12.80;99.20;;;;;;4997997;28;20172;-79
2021/04/19 08:03:08;;;;;;;12.27;9.87;;;13.00;96.80;;;;;;4998253;28;20300;-78
2021/04/19 08:05:35;;;;;;;13.33;10.17;;;13.10;96.30;;;;;;4997930;28;20160;-79
2021/04/19 08:08:02;;;;;;;11.20;8.73;;;12.90;95.40;;;;;;4997493;28;20291;-78
2021/04/19 08:10:28;;;;;;;12.77;9.50;;;12.60;95.50;;;;;;4997955;28;20288;-78
2021/04/19 08:13:05;;;;;;;12.70;9.83;;;12.50;95.70;;;;;;4996497;28;20198;-79
2021/04/19 08:15:32;;;;;;;11.07;8.83;;;12.80;95.70;;;;;;4997623;28;20186;-78
2021/04/19 08:18:08;;;;;;;12.43;9.53;;;13.20;93.00;;;;;;4996765;28;20195;-78
2021/04/19 08:20:35;;;;;;;12.13;9.37;;;13.50;93.40;;;;;;5002121;28;20182;-79
2021/04/19 08:23:13;;;;;;;12.93;9.73;;;13.70;92.40;;;;;;5002674;28;20203;-78
2021/04/19 08:25:48;;;;;;;13.63;10.00;;;13.90;94.60;;;;;;4997046;28;20271;-76
2021/04/19 08:28:19;;;;;;;10.47;9.33;;;14.30;92.70;;;;;;4996665;28;20201;-76
2021/04/19 08:30:52;;;;;;;11.77;9.73;;;13.20;90.90;;;;;;4997937;28;20171;-77
2021/04/19 08:33:19;;;;;;;13.03;9.20;;;12.40;92.60;;;;;;4998273;28;20171;-77
2021/04/19 08:35:47;;;;;;;12.57;8.97;;;12.70;92.70;;;;;;4997538;28;20179;-76
2021/04/19 08:38:17;;;;;;;11.60;9.50;;;12.80;94.30;;;;;;4997944;28;20219;-76
2021/04/19 08:40:44;;;;;;;12.00;10.10;;;12.50;93.80;;;;;;4996662;28;20258;-77
2021/04/19 08:43:20;;;;;;;12.37;9.40;;;11.90;94.90;;;;;;4998528;28;20175;-79
2021/04/19 08:45:47;;;;;;;10.93;9.17;;;11.90;95.50;;;;;;5002138;28;20171;-78
2021/04/19 08:48:14;;;;;;;15.13;9.53;;;12.30;95.90;;;;;;5003593;28;20203;-79
2021/04/19 08:50:42;;;;;;;11.73;9.13;;;13.00;96.10;;;;;;5004195;28;20195;-81
2021/04/19 08:53:10;;;;;;;13.20;9.30;;;13.70;93.60;;;;;;5003613;28;20649;-80
2021/04/19 08:55:37;;;;;;;10.83;9.23;;;14.40;91.50;;;;;;5031842;28;20189;-77
2021/04/19 08:58:09;;;;;;;11.17;9.20;;;14.90;92.70;;;;;;4998884;28;20243;-79
2021/04/19 09:00:35;;;;;;;12.17;8.67;;;14.20;90.30;;;;;;5000245;28;20172;-79
2021/04/19 09:03:01;;;;;;;10.20;9.10;;;13.20;91.30;;;;;;4999974;28;20211;-79
2021/04/19 09:05:27;;;;;;;12.43;9.30;;;12.40;91.80;;;;;;5004717;28;20246;-79
2021/04/19 09:08:15;;;;;;;10.43;8.77;;;11.50;92.20;;;;;;5002571;28;20211;-77
2021/04/19 09:11:05;;;;;;;9.33;8.30;;;11.70;92.90;;;;;;5005269;28;20510;-79
2021/04/19 09:13:35;;;;;;;10.83;7.83;;;12.50;92.60;;;;;;5004275;28;20180;-80
2021/04/19 09:16:21;;;;;;;11.73;8.77;;;12.90;92.10;;;;;;5005344;28;20171;-79
2021/04/19 09:18:53;;;;;;;9.60;8.60;;;12.80;93.10;;;;;;5003318;28;20200;-78
2021/04/19 09:21:38;;;;;;;10.57;8.80;;;13.40;93.40;;;;;;5000047;28;20358;-77
2021/04/19 09:24:09;;;;;;;10.77;8.07;;;13.50;86.40;;;;;;4996718;28;20183;-77
2021/04/19 09:26:49;;;;;;;7.43;6.67;;;13.10;91.90;;;;;;4998099;28;20198;-77
2021/04/19 09:29:37;;;;;;;6.40;5.50;;;13.40;85.40;;;;;;4995969;28;20207;-77
2021/04/19 09:32:07;;;;;;;6.20;4.50;;;13.80;82.30;;;;;;4995029;28;20215;-77
2021/04/19 09:34:37;;;;;;;6.47;5.67;;;12.90;78.60;;;;;;4997904;28;20650;-76
2021/04/19 09:37:03;;;;;;;8.20;6.90;;;12.30;83.70;;;;;;4998060;28;20180;-77
2021/04/19 09:39:50;;;;;;;6.57;5.87;;;12.00;89.00;;;;;;4996462;28;20213;-77
2021/04/19 09:42:37;;;;;;;8.57;6.50;;;11.50;87.20;;;;;;4996330;28;20184;-78
2021/04/19 09:45:03;;;;;;;10.93;7.60;;;10.90;90.10;;;;;;4997232;28;20645;-77
2021/04/19 09:47:52;;;;;;;7.97;6.23;;;10.50;91.50;;;;;;4997611;28;20190;-77
2021/04/19 09:50:22;;;;;;;6.23;5.63;;;10.20;89.50;;;;;;4994565;28;20650;-77
2021/04/19 09:52:53;;;;;;;8.53;7.10;;;10.10;90.20;;;;;;4997263;28;20294;-78
2021/04/19 09:55:20;;;;;;;9.63;7.43;;;10.00;93.30;;;;;;4997035;28;20638;-77
2021/04/19 09:57:46;;;;;;;9.57;7.40;;;10.00;94.30;;;;;;4995555;28;20220;-77
2021/04/19 10:00:13;;;;;;;10.10;7.90;;;10.00;94.40;;;;;;4997436;28;20534;-79
2021/04/19 10:02:43;;;;;;;10.00;7.57;;;10.10;95.00;;;;;;4997003;28;20191;-78
2021/04/19 10:05:13;;;;;;;9.37;7.60;;;10.00;96.00;;;;;;4995143;28;20241;-78
2021/04/19 10:07:43;;;;;;;9.93;7.30;;;9.80;96.70;;;;;;4997382;28;20209;-77
2021/04/19 10:10:11;;;;;;;9.50;7.77;;;9.60;96.50;;;;;;5028841;28;20179;-78
2021/04/19 10:12:45;;;;;;;11.87;8.30;;;9.50;96.20;;;;;;4996758;28;20311;-77
2021/04/19 10:15:17;;;;;;;11.00;8.17;;;9.40;97.10;;;;;;4996238;28;20210;-78
2021/04/19 10:17:43;;;;;;;9.53;7.93;;;9.50;98.00;;;;;;4996337;28;20195;-78
2021/04/19 10:20:19;;;;;;;11.40;7.93;;;9.40;98.00;;;;;;4996364;28;20184;-78
2021/04/19 10:23:05;;;;;;;10.73;7.77;;;9.50;97.90;;;;;;4996045;28;20179;-78
2021/04/19 10:25:32;;;;;;;9.10;7.57;;;9.40;98.10;;;;;;4991750;28;20203;-78
2021/04/19 10:27:58;;;;;;;13.60;8.80;;;9.50;98.70;;;;;;4996636;28;20683;-78
2021/04/19 10:30:24;;;;;;;11.10;8.23;;;9.50;98.10;;;;;;4996749;28;20207;-78
2021/04/19 10:32:50;;;;;;;11.27;8.27;;;9.50;97.60;;;;;;4996707;28;20205;-78
2021/04/19 10:35:39;;;;;;;10.47;8.50;;;9.40;98.00;;;;;;4995145;28;20262;-78
2021/04/19 10:38:05;;;;;;;10.30;7.80;;;9.40;97.60;;;;;;5000467;28;20211;-78
2021/04/19 10:40:31;;;;;;;10.40;8.00;;;9.40;97.60;;;;;;4998551;28;20185;-78
2021/04/19 10:43:11;;;;;;;10.17;7.80;;;9.40;98.10;;;;;;4998383;28;20187;-78
2021/04/19 10:45:41;;;;;;;9.47;7.53;;;9.40;97.70;;;;;;4999894;28;20525;-77
2021/04/19 10:48:24;;;;;;;11.17;7.53;;;9.50;98.20;;;;;;4999881;28;20221;-77
2021/04/19 10:50:51;;;;;;;15.10;8.60;;;9.40;98.90;;;;;;4999946;28;20637;-78
2021/04/19 10:53:49;;;;;;;11.50;7.80;;;9.40;99.20;;;;;;5000106;28;20167;-78
2021/04/19 10:56:24;;;;;;;11.40;7.87;;;9.60;97.80;;;;;;4976807;28;20504;-78
2021/04/19 10:58:54;;;;;;;9.67;8.23;;;9.70;98.50;;;;;;4999496;28;20268;-78
2021/04/19 11:01:24;;;;;;;11.50;8.73;;;9.70;97.70;;;;;;4997386;28;20218;-78
2021/04/19 11:03:50;;;;;;;16.00;9.30;;;9.80;99.00;;;;;;4999423;28;20662;-78
2021/04/19 11:06:17;;;;;;;12.90;8.63;;;10.00;99.00;;;;;;4999365;28;20587;-78
2021/04/19 11:08:50;;;;;;;9.10;8.03;;;10.20;98.60;;;;;;4999296;28;20202;-78
2021/04/19 11:11:45;;;;;;;13.20;8.97;;;10.40;97.90;;;;;;4997540;28;20218;-78
2021/04/19 11:14:24;;;;;;;11.30;7.63;;;10.60;96.00;;;;;;5000333;28;20227;-78
2021/04/19 11:16:53;;;;;;;11.50;8.40;;;10.70;95.50;;;;;;4998849;28;20231;-78
2021/04/19 11:19:30;;;;;;;10.00;7.57;;;10.90;94.70;;;;;;5000375;28;20199;-78
2021/04/19 11:21:57;;;;;;;9.30;7.50;;;11.20;94.50;;;;;;4999329;28;20194;-78
2021/04/19 11:24:37;;;;;;;14.20;10.07;;;11.20;92.80;;;;;;5001028;28;20175;-78
2021/04/19 11:27:08;;;;;;;10.30;7.73;;;11.40;94.30;;;;;;5001277;28;20172;-78
2021/04/19 11:29:39;;;;;;;11.37;7.63;;;12.40;94.50;;;;;;5000128;28;20276;-79
2021/04/19 11:32:07;;;;;;;11.20;8.43;;;13.70;93.70;;;;;;5000969;28;20199;-79
2021/04/19 11:34:40;;;;;;;11.10;7.77;;;14.60;91.50;;;;;;5001672;28;20235;-79
2021/04/19 11:37:06;;;;;;;9.83;8.17;;;14.50;88.20;;;;;;5002984;28;20195;-81
2021/04/19 11:39:38;;;;;;;10.57;8.33;;;13.60;87.40;;;;;;5001526;28;20278;-78
2021/04/19 11:42:06;;;;;;;9.10;8.20;;;13.20;89.70;;;;;;4998898;28;20696;-78
2021/04/19 11:44:49;;;;;;;9.73;7.77;;;13.00;88.40;;;;;;5000159;28;20176;-78
2021/04/19 11:47:19;;;;;;;9.57;7.33;;;12.70;88.20;;;;;;5004064;28;20190;-78
2021/04/19 11:49:49;;;;;;;10.00;8.00;;;12.70;90.50;;;;;;4996726;28;20187;-80
2021/04/19 11:52:14;;;;;;;9.43;7.30;;;12.80;90.70;;;;;;4997835;28;20620;-78
2021/04/19 11:54:40;;;;;;;11.67;7.53;;;12.80;88.20;;;;;;4998417;28;20187;-78
2021/04/19 11:57:06;;;;;;;9.23;7.57;;;12.60;90.00;;;;;;4999307;28;20192;-78
2021/04/19 11:59:31;;;;;;;9.83;7.60;;;12.30;90.30;;;;;;4995786;28;20199;-79
2021/04/19 12:02:00;;;;;;;9.67;8.13;;;12.20;90.20;;;;;;4983019;28;20207;-78
2021/04/19 12:04:25;;;;;;;11.90;7.83;;;12.20;89.10;;;;;;4980172;28;20655;-78
2021/04/19 12:06:51;;;;;;;8.80;7.60;;;12.00;88.50;;;;;;4980798;28;20191;-79
2021/04/19 12:09:17;;;;;;;10.20;7.83;;;12.00;89.00;;;;;;4980885;28;20195;-79
2021/04/19 12:11:42;;;;;;;8.23;7.20;;;12.00;89.20;;;;;;4979098;28;20254;-79
2021/04/19 12:14:08;;;;;;;9.50;7.60;;;12.10;85.20;;;;;;4982372;28;20173;-80
2021/04/19 12:16:33;;;;;;;9.30;7.37;;;11.80;86.90;;;;;;4982884;28;20199;-80
2021/04/19 12:18:59;;;;;;;10.53;7.43;;;11.80;85.30;;;;;;4984278;28;20689;-79
2021/04/19 12:21:25;;;;;;;11.27;7.33;;;12.00;87.20;;;;;;4985600;28;20199;-80
2021/04/19 12:23:52;;;;;;;12.17;7.67;;;12.10;86.60;;;;;;4985180;28;20223;-78
2021/04/19 12:26:18;;;;;;;10.63;7.90;;;12.00;87.90;;;;;;5001609;28;20183;-79
2021/04/19 12:28:45;;;;;;;14.50;7.70;;;12.10;90.90;;;;;;5007736;28;20209;-79
2021/04/19 12:31:11;;;;;;;9.77;7.83;;;12.20;89.70;;;;;;5001287;28;20203;-79
2021/04/19 12:33:36;;;;;;;10.23;8.20;;;12.10;90.20;;;;;;5000001;28;20207;-78
2021/04/19 12:36:02;;;;;;;9.73;7.73;;;12.00;91.80;;;;;;5001888;28;20190;-78
2021/04/19 12:38:28;;;;;;;17.47;8.17;;;11.90;90.80;;;;;;4998109;28;20200;-78
2021/04/19 12:40:54;;;;;;;9.23;7.47;;;11.80;91.40;;;;;;4999588;28;20171;-78
2021/04/19 12:43:20;;;;;;;9.90;7.67;;;11.80;91.40;;;;;;4995271;28;20168;-77
2021/04/19 12:45:46;;;;;;;8.47;7.03;;;11.80;90.90;;;;;;4994958;28;20179;-77
2021/04/19 12:48:12;;;;;;;14.13;7.87;;;11.70;90.80;;;;;;4994475;28;20234;-77
2021/04/19 12:50:38;;;;;;;13.50;8.77;;;11.70;90.40;;;;;;4994640;28;20168;-77
2021/04/19 12:53:09;;;;;;;10.20;7.97;;;11.80;90.50;;;;;;4994687;28;20202;-77